createdAt,value
2023-10-09T00:00:56.296Z,1010.35
2023-10-09T00:06:00.480Z,1010.30
2023-10-09T00:11:04.553Z,1010.27
2023-10-09T00:16:08.766Z,1010.30
2023-10-09T00:21:13.026Z,1010.18
2023-10-09T00:26:17.058Z,1010.14
2023-10-09T00:31:21.267Z,1010.10
2023-10-09T00:36:25.382Z,1010.19
2023-10-09T00:41:29.535Z,1010.20
2023-10-09T00:46:33.758Z,1010.02
2023-10-09T00:51:37.985Z,1009.88
2023-10-09T00:56:42.022Z,1009.88
2023-10-09T01:01:46.232Z,1009.81
2023-10-09T01:06:50.335Z,1009.68
2023-10-09T01:11:54.525Z,1009.60
2023-10-09T01:16:58.639Z,1009.60
2023-10-09T01:22:02.791Z,1009.47
2023-10-09T01:27:06.979Z,1009.61
2023-10-09T01:32:11.143Z,1009.52
2023-10-09T01:37:15.296Z,1009.52
2023-10-09T01:42:19.480Z,1009.56
2023-10-09T01:47:23.641Z,1009.69
2023-10-09T01:52:27.793Z,1009.65
2023-10-09T01:57:31.985Z,1009.61
2023-10-09T02:02:36.204Z,1009.66
2023-10-09T02:07:40.245Z,1009.68
2023-10-09T02:12:44.424Z,1009.71
2023-10-09T02:17:48.544Z,1009.65
2023-10-09T02:22:52.723Z,1009.68
2023-10-09T02:27:56.887Z,1009.53
2023-10-09T02:33:01.125Z,1009.46
2023-10-09T02:38:05.211Z,1009.40
2023-10-09T02:43:09.383Z,1009.54
2023-10-09T02:48:13.636Z,1009.55
2023-10-09T02:53:17.698Z,1009.51
2023-10-09T02:58:21.879Z,1009.49
2023-10-09T03:03:26.160Z,1009.36
2023-10-09T03:08:30.214Z,1009.36
2023-10-09T03:13:34.354Z,1009.25
2023-10-09T03:18:38.573Z,1009.27
2023-10-09T03:23:42.664Z,1009.23
2023-10-09T03:28:46.839Z,1009.28
2023-10-09T03:33:51.062Z,1009.24
2023-10-09T03:38:55.132Z,1009.26
2023-10-09T03:43:59.317Z,1009.20
2023-10-09T03:49:03.468Z,1009.08
2023-10-09T03:54:07.753Z,1008.93
2023-10-09T03:59:11.819Z,1008.73
2023-10-09T04:04:14.530Z,1008.81
2023-10-09T04:09:18.203Z,1008.85
2023-10-09T04:14:22.417Z,1008.76
2023-10-09T04:19:26.548Z,1008.75
2023-10-09T04:24:30.752Z,1008.76
2023-10-09T04:29:34.849Z,1008.73
2023-10-09T04:34:37.128Z,1008.55
2023-10-09T04:39:41.349Z,1008.80
2023-10-09T04:44:45.449Z,1008.79
2023-10-09T04:49:49.714Z,1008.65
2023-10-09T04:54:53.776Z,1008.56
2023-10-09T04:59:57.997Z,1008.60
2023-10-09T05:05:02.082Z,1008.55
2023-10-09T05:10:06.223Z,1008.59
2023-10-09T05:15:10.502Z,1008.68
2023-10-09T05:20:14.566Z,1008.57
2023-10-09T05:25:18.735Z,1008.68
2023-10-09T05:30:22.895Z,1008.65
2023-10-09T05:35:27.061Z,1008.95
2023-10-09T05:40:31.190Z,1009.05
2023-10-09T05:45:35.447Z,1009.28
2023-10-09T05:50:39.612Z,1009.39
2023-10-09T05:55:43.683Z,1009.29
2023-10-09T06:00:47.903Z,1009.10
2023-10-09T06:05:52.030Z,1009.18
2023-10-09T06:10:56.189Z,1009.51
2023-10-09T06:16:00.353Z,1009.57
2023-10-09T06:21:04.526Z,1009.63
2023-10-09T06:26:08.671Z,1009.78
2023-10-09T06:31:12.841Z,1009.78
2023-10-09T06:36:16.984Z,1009.79
2023-10-09T06:41:21.109Z,1009.85
2023-10-09T06:46:25.323Z,1009.82
2023-10-09T06:51:29.510Z,1009.77
2023-10-09T06:56:33.616Z,1009.78
2023-10-09T07:01:37.793Z,1009.69
2023-10-09T07:06:41.975Z,1009.49
2023-10-09T07:11:46.089Z,1009.46
2023-10-09T07:16:50.254Z,1009.54
2023-10-09T07:21:54.383Z,1009.59
2023-10-09T07:26:58.576Z,1009.77
2023-10-09T07:32:02.731Z,1009.82
2023-10-09T07:37:06.871Z,1010.04
2023-10-09T07:42:11.142Z,1010.04
2023-10-09T07:47:15.200Z,1009.87
2023-10-09T07:52:19.405Z,1009.35
2023-10-09T07:57:23.564Z,1009.21
2023-10-09T08:02:27.719Z,1009.44
2023-10-09T08:08:08.510Z,1009.52
2023-10-09T08:12:36.116Z,1009.59
2023-10-09T08:17:40.222Z,1009.91
2023-10-09T08:22:44.697Z,1010.04
2023-10-09T08:27:48.599Z,1010.12
2023-10-09T08:34:19.567Z,1010.35
2023-10-09T08:37:56.884Z,1010.28
2023-10-09T08:43:00.955Z,1009.90
2023-10-09T08:48:05.251Z,1010.27
2023-10-09T08:53:09.314Z,1010.41
2023-10-09T08:58:13.484Z,1010.07
2023-10-09T09:03:17.629Z,1009.48
2023-10-09T09:08:21.834Z,1009.28
2023-10-09T09:13:25.929Z,1008.84
2023-10-09T09:18:30.184Z,1008.76
2023-10-09T09:23:34.257Z,1008.80
2023-10-09T09:28:39.451Z,1009.05
2023-10-09T09:33:42.575Z,1008.98
2023-10-09T09:38:46.732Z,1008.99
2023-10-09T09:43:50.898Z,1009.00
2023-10-09T09:48:55.021Z,1008.95
2023-10-09T09:53:59.250Z,1008.99
2023-10-09T09:59:03.426Z,1009.11
2023-10-09T10:04:05.684Z,1009.36
2023-10-09T10:09:09.830Z,1009.57
2023-10-09T10:14:13.928Z,1009.68
2023-10-09T10:19:18.120Z,1009.71
2023-10-09T10:24:22.258Z,1009.63
2023-10-09T10:29:26.477Z,1009.67
2023-10-09T10:34:30.595Z,1009.55
2023-10-09T10:39:34.737Z,1009.64
2023-10-09T10:44:38.908Z,1009.63
2023-10-09T10:49:43.166Z,1009.58
2023-10-09T10:54:47.396Z,1009.65
2023-10-09T10:59:51.388Z,1009.60
2023-10-09T11:04:55.899Z,1009.68
2023-10-09T11:09:59.914Z,1009.60
2023-10-09T11:15:03.857Z,1009.55
2023-10-09T11:20:08.036Z,1009.61
2023-10-09T11:25:12.170Z,1009.57
2023-10-09T11:30:16.353Z,1009.60
2023-10-09T11:35:20.503Z,1009.61
2023-10-09T11:40:24.663Z,1009.63
2023-10-09T11:45:28.807Z,1009.71
2023-10-09T11:50:33.003Z,1009.78
2023-10-09T11:55:37.207Z,1009.64
2023-10-09T12:00:41.340Z,1009.68
2023-10-09T12:05:45.445Z,1009.58
2023-10-09T12:10:49.705Z,1009.50
2023-10-09T12:15:53.795Z,1009.54
2023-10-09T12:20:57.946Z,1009.46
2023-10-09T12:26:02.191Z,1009.52
2023-10-09T12:31:06.243Z,1009.53
2023-10-09T12:36:10.405Z,1009.51
2023-10-09T12:41:14.587Z,1009.64
2023-10-09T12:46:18.805Z,1009.68
2023-10-09T12:51:22.925Z,1009.72
2023-10-09T12:56:27.054Z,1009.63
2023-10-09T13:01:31.273Z,1009.72
2023-10-09T13:06:35.368Z,1009.67
2023-10-09T13:11:39.571Z,1009.68
2023-10-09T13:16:43.735Z,1009.66
2023-10-09T13:21:47.889Z,1009.61
2023-10-09T13:26:52.048Z,1009.37
2023-10-09T13:31:56.208Z,1009.44
2023-10-09T13:37:00.564Z,1009.53
2023-10-09T13:42:04.473Z,1009.42
2023-10-09T13:47:08.773Z,1009.53
2023-10-09T13:52:12.813Z,1009.44
2023-10-09T13:57:16.997Z,1009.45
2023-10-09T14:02:21.203Z,1009.51
2023-10-09T14:07:25.313Z,1009.50
2023-10-09T14:12:29.445Z,1009.35
2023-10-09T14:17:33.668Z,1009.42
2023-10-09T14:22:37.784Z,1009.52
2023-10-09T14:27:41.940Z,1009.52
2023-10-09T14:32:46.131Z,1009.50
2023-10-09T14:37:50.314Z,1009.45
2023-10-09T14:42:58.125Z,1009.46
2023-10-09T14:47:58.635Z,1009.58
2023-10-09T14:53:02.790Z,1009.50
2023-10-09T14:58:06.863Z,1009.46
2023-10-09T15:03:11.199Z,1009.41
2023-10-09T15:08:15.223Z,1009.38
2023-10-09T15:13:19.420Z,1009.34
2023-10-09T15:18:23.526Z,1009.31
2023-10-09T15:23:27.685Z,1009.33
2023-10-09T15:28:31.823Z,1009.27
2023-10-09T15:33:36.353Z,1009.43
2023-10-09T15:38:38.266Z,1009.34
2023-10-09T15:43:42.439Z,1009.32
2023-10-09T15:48:46.591Z,1009.40
2023-10-09T15:53:50.788Z,1009.44
2023-10-09T15:58:55.071Z,1009.48
2023-10-09T16:03:59.083Z,1009.56
2023-10-09T16:09:03.192Z,1009.58
2023-10-09T16:14:07.420Z,1009.44
2023-10-09T16:19:11.557Z,1009.53
2023-10-09T16:24:15.790Z,1009.59
2023-10-09T16:29:19.896Z,1009.70
2023-10-09T16:34:24.007Z,1009.73
2023-10-09T16:39:28.163Z,1009.68
2023-10-09T16:44:32.352Z,1009.72
2023-10-09T16:49:36.473Z,1009.77
2023-10-09T16:54:40.723Z,1009.77
2023-10-09T16:59:44.818Z,1009.74
2023-10-09T17:04:48.988Z,1009.87
2023-10-09T17:09:53.091Z,1009.88
2023-10-09T17:14:57.274Z,1009.87
2023-10-09T17:20:01.459Z,1009.91
2023-10-09T17:25:05.587Z,1009.93
2023-10-09T17:30:09.773Z,1009.93
2023-10-09T17:35:13.961Z,1009.99
2023-10-09T17:40:18.065Z,1010.25
2023-10-09T17:45:22.211Z,1010.25
2023-10-09T17:50:26.418Z,1010.29
2023-10-09T17:55:31.230Z,1010.37
2023-10-09T18:00:34.768Z,1010.35
2023-10-09T18:05:38.844Z,1010.35
2023-10-09T18:10:43.071Z,1010.27
2023-10-09T18:15:47.192Z,1010.30
2023-10-09T18:20:51.349Z,1010.19
2023-10-09T18:25:55.511Z,1010.34
2023-10-09T18:30:59.709Z,1010.29
2023-10-09T18:36:03.845Z,1010.36
2023-10-09T18:41:08.077Z,1010.34
2023-10-09T18:46:12.601Z,1010.35
2023-10-09T18:51:16.325Z,1010.29
2023-10-09T18:56:20.527Z,1010.28
2023-10-09T19:01:24.684Z,1010.24
2023-10-09T19:06:28.809Z,1010.27
2023-10-09T19:11:32.946Z,1010.29
2023-10-09T19:16:37.169Z,1010.25
2023-10-09T19:21:41.277Z,1010.32
2023-10-09T19:26:45.548Z,1010.42
2023-10-09T19:31:49.627Z,1010.43
2023-10-09T19:36:53.744Z,1010.37
2023-10-09T19:41:57.909Z,1010.32
2023-10-09T19:47:02.103Z,1010.47
2023-10-09T19:52:06.215Z,1010.36
2023-10-09T19:57:10.388Z,1010.43
2023-10-09T20:02:14.649Z,1010.39
2023-10-09T20:07:18.712Z,1010.43
2023-10-09T20:12:22.889Z,1010.53
2023-10-09T20:17:27.060Z,1010.51
2023-10-09T20:22:31.171Z,1010.56
2023-10-09T20:27:35.345Z,1010.68
2023-10-09T20:32:39.589Z,1010.66
2023-10-09T20:37:43.719Z,1010.72
2023-10-09T20:42:47.829Z,1010.74
2023-10-09T20:47:52.044Z,1010.82
2023-10-09T20:52:56.151Z,1010.80
2023-10-09T20:58:00.337Z,1010.86
2023-10-09T21:03:03.801Z,1010.80
2023-10-09T21:08:06.761Z,1010.77
2023-10-09T21:13:10.880Z,1010.87
2023-10-09T21:18:15.288Z,1010.85
2023-10-09T21:23:19.255Z,1010.84
2023-10-09T21:28:23.349Z,1010.87
2023-10-09T21:33:25.685Z,1010.91
2023-10-09T21:38:29.797Z,1010.88
2023-10-09T21:43:33.933Z,1010.76
2023-10-09T21:48:38.090Z,1010.82
2023-10-09T21:53:42.269Z,1010.73
2023-10-09T21:58:46.464Z,1010.92
2023-10-09T22:03:50.675Z,1010.91
2023-10-09T22:08:54.776Z,1010.86
2023-10-09T22:13:58.917Z,1010.95
2023-10-09T22:19:14.121Z,1010.98
2023-10-09T22:24:07.229Z,1010.88
2023-10-09T22:29:11.424Z,1010.87
2023-10-09T22:34:15.534Z,1010.83
2023-10-09T22:39:19.717Z,1010.84
2023-10-09T22:44:23.923Z,1010.73
2023-10-09T22:49:27.993Z,1010.79
2023-10-09T22:54:32.160Z,1010.77
2023-10-09T22:59:36.377Z,1010.94
2023-10-09T23:04:40.488Z,1010.87
2023-10-09T23:09:44.674Z,1010.83
2023-10-09T23:14:48.815Z,1010.80
2023-10-09T23:19:53.013Z,1010.77
2023-10-09T23:24:57.153Z,1010.74
2023-10-09T23:30:01.321Z,1010.75
2023-10-09T23:35:05.461Z,1010.67
2023-10-09T23:40:09.627Z,1010.85
2023-10-09T23:45:13.819Z,1010.78
2023-10-09T23:50:18.024Z,1010.87
2023-10-09T23:55:22.081Z,1010.82
